sensor_id;sensor_type;location;lat;lon;timestamp;pressure;altitude;pressure_sealevel;temperature;humidity
39141;BME280;24875;48.436;10.298;2023-05-17T13:11:11;96758.22;;;16.06;51.38
39141;BME280;24875;48.436;10.298;2023-05-17T13:13:39;96762.06;;;16.37;56.71
39141;BME280;24875;48.436;10.298;2023-05-17T13:16:06;96758.44;;;16.11;50.52
39141;BME280;24875;48.436;10.298;2023-05-17T13:18:46;96759.94;;;15.80;51.05
39141;BME280;24875;48.436;10.298;2023-05-17T13:21:13;96756.22;;;15.74;52.58
39141;BME280;24875;48.436;10.298;2023-05-17T13:23:41;96754.47;;;16.34;51.24
39141;BME280;24875;48.436;10.298;2023-05-17T13:26:09;96762.16;;;15.76;53.97
39141;BME280;24875;48.436;10.298;2023-05-17T13:28:37;96760.44;;;16.02;53.90
39141;BME280;24875;48.436;10.298;2023-05-17T13:31:03;96763.78;;;15.71;53.58
39141;BME280;24875;48.436;10.298;2023-05-17T13:33:30;96761.00;;;15.58;54.15
39141;BME280;24875;48.436;10.298;2023-05-17T13:35:57;96769.47;;;15.68;54.19
39141;BME280;24875;48.436;10.298;2023-05-17T13:38:23;96769.50;;;16.14;51.78
39141;BME280;24875;48.436;10.298;2023-05-17T13:40:50;96763.38;;;15.74;53.80
39141;BME280;24875;48.436;10.298;2023-05-17T13:43:17;96762.69;;;15.99;54.61
39141;BME280;24875;48.436;10.298;2023-05-17T13:45:44;96758.53;;;15.84;55.71
39141;BME280;24875;48.436;10.298;2023-05-17T13:48:14;96765.34;;;15.65;57.66
39141;BME280;24875;48.436;10.298;2023-05-17T13:50:41;96770.81;;;15.91;54.02
39141;BME280;24875;48.436;10.298;2023-05-17T13:53:08;96765.31;;;15.92;57.56
39141;BME280;24875;48.436;10.298;2023-05-17T13:55:34;96771.28;;;16.01;53.84
39141;BME280;24875;48.436;10.298;2023-05-17T13:58:03;96760.22;;;16.44;51.87
39141;BME280;24875;48.436;10.298;2023-05-17T14:00:31;96756.41;;;16.72;53.01
39141;BME280;24875;48.436;10.298;2023-05-17T14:02:57;96772.97;;;16.08;52.13
39141;BME280;24875;48.436;10.298;2023-05-17T14:05:24;96760.47;;;16.62;51.13
39141;BME280;24875;48.436;10.298;2023-05-17T14:07:50;96753.97;;;16.84;51.70
39141;BME280;24875;48.436;10.298;2023-05-17T14:10:17;96763.84;;;17.35;52.63
39141;BME280;24875;48.436;10.298;2023-05-17T14:12:43;96774.31;;;17.49;51.08
39141;BME280;24875;48.436;10.298;2023-05-17T14:15:11;96761.75;;;17.88;47.23
39141;BME280;24875;48.436;10.298;2023-05-17T14:17:39;96757.31;;;17.44;50.00
39141;BME280;24875;48.436;10.298;2023-05-17T14:20:07;96762.59;;;16.86;52.96
39141;BME280;24875;48.436;10.298;2023-05-17T14:22:33;96772.78;;;16.63;53.97
39141;BME280;24875;48.436;10.298;2023-05-17T14:25:00;96765.47;;;17.16;53.26
39141;BME280;24875;48.436;10.298;2023-05-17T14:27:27;96767.94;;;17.11;52.14
39141;BME280;24875;48.436;10.298;2023-05-17T14:29:53;96769.13;;;16.77;52.62
39141;BME280;24875;48.436;10.298;2023-05-17T14:32:20;96769.00;;;17.49;52.04
39141;BME280;24875;48.436;10.298;2023-05-17T14:34:47;96763.81;;;17.80;49.82
39141;BME280;24875;48.436;10.298;2023-05-17T14:37:14;96756.78;;;17.92;49.73
39141;BME280;24875;48.436;10.298;2023-05-17T14:39:41;96764.53;;;18.26;51.33
39141;BME280;24875;48.436;10.298;2023-05-17T14:42:07;96762.94;;;17.99;48.65
39141;BME280;24875;48.436;10.298;2023-05-17T14:44:33;96758.22;;;18.57;47.22
39141;BME280;24875;48.436;10.298;2023-05-17T14:47:03;96766.75;;;19.03;49.80
39141;BME280;24875;48.436;10.298;2023-05-17T14:49:30;96768.97;;;19.37;50.46
39141;BME280;24875;48.436;10.298;2023-05-17T14:51:58;96765.66;;;20.08;53.73
39141;BME280;24875;48.436;10.298;2023-05-17T14:54:24;96766.41;;;19.72;50.40
39141;BME280;24875;48.436;10.298;2023-05-17T14:56:53;96770.91;;;18.18;54.11
39141;BME280;24875;48.436;10.298;2023-05-17T14:59:20;96776.56;;;18.41;48.29
39141;BME280;24875;48.436;10.298;2023-05-17T15:01:47;96774.81;;;18.03;52.20
39141;BME280;24875;48.436;10.298;2023-05-17T15:04:13;96786.19;;;18.48;52.59
39141;BME280;24875;48.436;10.298;2023-05-17T15:06:40;96783.88;;;17.89;50.49
39141;BME280;24875;48.436;10.298;2023-05-17T15:09:07;96783.84;;;18.02;52.37
39141;BME280;24875;48.436;10.298;2023-05-17T15:11:37;96785.19;;;17.48;51.67
39141;BME280;24875;48.436;10.298;2023-05-17T15:14:04;96784.16;;;17.29;51.35
39141;BME280;24875;48.436;10.298;2023-05-17T15:16:31;96783.53;;;17.21;50.56
39141;BME280;24875;48.436;10.298;2023-05-17T15:18:58;96782.06;;;17.76;50.87
39141;BME280;24875;48.436;10.298;2023-05-17T15:21:24;96786.41;;;17.58;48.64
39141;BME280;24875;48.436;10.298;2023-05-17T15:23:51;96780.91;;;18.35;48.83
39141;BME280;24875;48.436;10.298;2023-05-17T15:26:19;96780.56;;;17.93;47.73
39141;BME280;24875;48.436;10.298;2023-05-17T15:28:47;96782.59;;;18.17;49.36
39141;BME280;24875;48.436;10.298;2023-05-17T15:31:14;96779.94;;;18.61;47.27
39141;BME280;24875;48.436;10.298;2023-05-17T15:33:41;96780.13;;;18.09;50.52
39141;BME280;24875;48.436;10.298;2023-05-17T15:36:07;96774.22;;;18.57;49.27
39141;BME280;24875;48.436;10.298;2023-05-17T15:38:34;96773.22;;;18.52;50.01
39141;BME280;24875;48.436;10.298;2023-05-17T15:41:02;96785.38;;;18.79;50.01
39141;BME280;24875;48.436;10.298;2023-05-17T15:43:31;96789.25;;;17.70;49.02
39141;BME280;24875;48.436;10.298;2023-05-17T15:45:58;96780.97;;;18.03;48.83
39141;BME280;24875;48.436;10.298;2023-05-17T15:48:25;96781.63;;;17.92;49.89
39141;BME280;24875;48.436;10.298;2023-05-17T15:50:53;96787.13;;;18.04;50.81
39141;BME280;24875;48.436;10.298;2023-05-17T15:53:20;96784.25;;;18.18;47.72
39141;BME280;24875;48.436;10.298;2023-05-17T15:55:46;96784.59;;;18.34;49.20
39141;BME280;24875;48.436;10.298;2023-05-17T15:58:15;96798.06;;;17.64;48.71
39141;BME280;24875;48.436;10.298;2023-05-17T16:00:43;96791.88;;;17.89;48.49
39141;BME280;24875;48.436;10.298;2023-05-17T16:03:10;96794.09;;;17.98;49.41
39141;BME280;24875;48.436;10.298;2023-05-17T16:05:37;96787.09;;;18.23;48.33
39141;BME280;24875;48.436;10.298;2023-05-17T16:08:04;96793.47;;;18.66;49.08
39141;BME280;24875;48.436;10.298;2023-05-17T16:10:31;96790.34;;;19.12;46.57
39141;BME280;24875;48.436;10.298;2023-05-17T16:12:58;96779.41;;;19.45;45.74
39141;BME280;24875;48.436;10.298;2023-05-17T16:15:24;96787.63;;;20.27;45.29
39141;BME280;24875;48.436;10.298;2023-05-17T16:17:52;96790.97;;;19.39;44.79
39141;BME280;24875;48.436;10.298;2023-05-17T16:20:19;96798.31;;;18.82;45.96
39141;BME280;24875;48.436;10.298;2023-05-17T16:22:47;96802.84;;;19.18;44.23
39141;BME280;24875;48.436;10.298;2023-05-17T16:25:15;96800.78;;;18.83;45.38
39141;BME280;24875;48.436;10.298;2023-05-17T16:27:41;96796.22;;;18.46;45.13
39141;BME280;24875;48.436;10.298;2023-05-17T16:30:08;96797.75;;;18.73;46.32
39141;BME280;24875;48.436;10.298;2023-05-17T16:32:35;96801.63;;;18.77;47.77
39141;BME280;24875;48.436;10.298;2023-05-17T16:35:04;96813.72;;;18.36;46.04
39141;BME280;24875;48.436;10.298;2023-05-17T16:37:30;96811.31;;;18.02;47.90
39141;BME280;24875;48.436;10.298;2023-05-17T16:39:57;96812.56;;;18.13;47.58
39141;BME280;24875;48.436;10.298;2023-05-17T16:42:23;96816.09;;;18.57;45.98
39141;BME280;24875;48.436;10.298;2023-05-17T16:44:50;96816.69;;;17.83;47.10
39141;BME280;24875;48.436;10.298;2023-05-17T16:47:17;96817.34;;;17.33;49.07
39141;BME280;24875;48.436;10.298;2023-05-17T16:49:47;96817.31;;;17.20;49.43
39141;BME280;24875;48.436;10.298;2023-05-17T16:52:15;96824.69;;;17.18;48.75
39141;BME280;24875;48.436;10.298;2023-05-17T16:54:42;96822.06;;;17.25;49.71
39141;BME280;24875;48.436;10.298;2023-05-17T16:57:08;96815.91;;;17.24;49.22
39141;BME280;24875;48.436;10.298;2023-05-17T16:59:35;96820.78;;;17.08;48.86
39141;BME280;24875;48.436;10.298;2023-05-17T17:02:03;96817.56;;;17.38;48.66
39141;BME280;24875;48.436;10.298;2023-05-17T17:04:29;96817.97;;;17.42;47.57
39141;BME280;24875;48.436;10.298;2023-05-17T17:06:57;96820.53;;;16.84;49.46
39141;BME280;24875;48.436;10.298;2023-05-17T17:09:25;96824.97;;;16.57;51.52
39141;BME280;24875;48.436;10.298;2023-05-17T17:11:51;96824.00;;;16.78;50.50
39141;BME280;24875;48.436;10.298;2023-05-17T17:14:18;96819.13;;;16.94;49.58
39141;BME280;24875;48.436;10.298;2023-05-17T17:16:44;96830.63;;;17.20;51.42
39141;BME280;24875;48.436;10.298;2023-05-17T17:19:11;96825.66;;;18.33;48.69
39141;BME280;24875;48.436;10.298;2023-05-17T17:21:37;96828.13;;;18.16;50.97
39141;BME280;24875;48.436;10.298;2023-05-17T17:24:07;96829.22;;;17.89;48.79
39141;BME280;24875;48.436;10.298;2023-05-17T17:26:34;96826.91;;;18.12;48.28
39141;BME280;24875;48.436;10.298;2023-05-17T17:29:01;96836.81;;;17.66;48.26
39141;BME280;24875;48.436;10.298;2023-05-17T17:31:29;96832.91;;;17.23;51.57
39141;BME280;24875;48.436;10.298;2023-05-17T17:33:55;96840.81;;;16.98;51.31
39141;BME280;24875;48.436;10.298;2023-05-17T17:36:22;96840.38;;;16.88;52.70
39141;BME280;24875;48.436;10.298;2023-05-17T17:38:50;96841.47;;;16.40;52.89
39141;BME280;24875;48.436;10.298;2023-05-17T17:41:16;96840.06;;;16.10;51.35
39141;BME280;24875;48.436;10.298;2023-05-17T17:43:45;96841.31;;;16.54;54.92
39141;BME280;24875;48.436;10.298;2023-05-17T17:46:13;96837.59;;;17.08;53.52
39141;BME280;24875;48.436;10.298;2023-05-17T17:48:40;96834.56;;;17.24;52.75
39141;BME280;24875;48.436;10.298;2023-05-17T17:51:07;96844.19;;;17.25;51.13
39141;BME280;24875;48.436;10.298;2023-05-17T17:53:33;96845.13;;;16.39;51.89
39141;BME280;24875;48.436;10.298;2023-05-17T17:56:00;96847.00;;;16.45;53.16
39141;BME280;24875;48.436;10.298;2023-05-17T17:58:26;96838.31;;;15.90;53.15
39141;BME280;24875;48.436;10.298;2023-05-17T18:00:56;96848.66;;;16.12;53.96
39141;BME280;24875;48.436;10.298;2023-05-17T18:03:22;96844.28;;;15.98;55.40
39141;BME280;24875;48.436;10.298;2023-05-17T18:05:49;96849.63;;;15.23;54.86
39141;BME280;24875;48.436;10.298;2023-05-17T18:08:15;96852.50;;;15.49;55.48
39141;BME280;24875;48.436;10.298;2023-05-17T18:10:42;96851.22;;;15.66;55.92
39141;BME280;24875;48.436;10.298;2023-05-17T18:13:08;96855.19;;;15.28;56.14
39141;BME280;24875;48.436;10.298;2023-05-17T18:15:35;96847.53;;;15.39;59.14
39141;BME280;24875;48.436;10.298;2023-05-17T18:18:03;96855.78;;;15.09;58.84
39141;BME280;24875;48.436;10.298;2023-05-17T18:20:29;96856.63;;;14.54;60.44
39141;BME280;24875;48.436;10.298;2023-05-17T18:22:56;96857.81;;;14.51;60.40
39141;BME280;24875;48.436;10.298;2023-05-17T18:25:22;96861.59;;;14.28;60.99
39141;BME280;24875;48.436;10.298;2023-05-17T18:27:49;96859.97;;;14.27;61.10
39141;BME280;24875;48.436;10.298;2023-05-17T18:30:16;96864.28;;;13.91;62.29
39141;BME280;24875;48.436;10.298;2023-05-17T18:32:43;96857.84;;;13.42;62.52
39141;BME280;24875;48.436;10.298;2023-05-17T18:35:11;96867.94;;;13.25;63.46
39141;BME280;24875;48.436;10.298;2023-05-17T18:37:37;96868.53;;;12.90;66.29
39141;BME280;24875;48.436;10.298;2023-05-17T18:40:05;96867.97;;;12.72;67.65
39141;BME280;24875;48.436;10.298;2023-05-17T18:42:32;96865.81;;;12.45;68.11
39141;BME280;24875;48.436;10.298;2023-05-17T18:44:58;96877.56;;;12.73;68.98
39141;BME280;24875;48.436;10.298;2023-05-17T18:47:25;96878.66;;;12.78;67.91
39141;BME280;24875;48.436;10.298;2023-05-17T18:49:52;96876.38;;;12.76;68.75
39141;BME280;24875;48.436;10.298;2023-05-17T18:52:20;96880.72;;;12.99;66.58
39141;BME280;24875;48.436;10.298;2023-05-17T18:54:46;96874.88;;;13.03;69.39
39141;BME280;24875;48.436;10.298;2023-05-17T18:57:13;96866.00;;;12.96;68.57
39141;BME280;24875;48.436;10.298;2023-05-17T18:59:39;96874.81;;;12.89;66.25
39141;BME280;24875;48.436;10.298;2023-05-17T19:02:06;96878.19;;;12.75;67.35
39141;BME280;24875;48.436;10.298;2023-05-17T19:04:33;96882.16;;;12.41;67.92
39141;BME280;24875;48.436;10.298;2023-05-17T19:07:00;96885.88;;;12.24;69.37
39141;BME280;24875;48.436;10.298;2023-05-17T19:09:28;96881.31;;;12.10;69.10
39141;BME280;24875;48.436;10.298;2023-05-17T19:11:56;96881.69;;;11.91;70.31
39141;BME280;24875;48.436;10.298;2023-05-17T19:14:22;96878.91;;;11.93;72.63
39141;BME280;24875;48.436;10.298;2023-05-17T19:16:49;96884.22;;;11.77;71.51
39141;BME280;24875;48.436;10.298;2023-05-17T19:19:16;96886.56;;;11.64;72.25
39141;BME280;24875;48.436;10.298;2023-05-17T19:21:42;96887.75;;;11.54;73.44
39141;BME280;24875;48.436;10.298;2023-05-17T19:24:09;96883.13;;;11.63;72.89
39141;BME280;24875;48.436;10.298;2023-05-17T19:26:36;96890.84;;;11.65;74.74
39141;BME280;24875;48.436;10.298;2023-05-17T19:29:03;96900.06;;;11.45;75.66
39141;BME280;24875;48.436;10.298;2023-05-17T19:31:29;96904.38;;;11.38;74.97
39141;BME280;24875;48.436;10.298;2023-05-17T19:33:56;96897.78;;;11.18;75.85
39141;BME280;24875;48.436;10.298;2023-05-17T19:36:23;96900.44;;;11.34;76.21
39141;BME280;24875;48.436;10.298;2023-05-17T19:38:50;96898.44;;;11.36;77.69
39141;BME280;24875;48.436;10.298;2023-05-17T19:41:17;96898.44;;;11.20;78.09
39141;BME280;24875;48.436;10.298;2023-05-17T19:43:45;96897.78;;;11.34;78.27
39141;BME280;24875;48.436;10.298;2023-05-17T19:46:11;96898.59;;;11.11;78.67
39141;BME280;24875;48.436;10.298;2023-05-17T19:48:38;96895.97;;;11.11;78.41
39141;BME280;24875;48.436;10.298;2023-05-17T19:51:04;96892.19;;;10.90;77.86
39141;BME280;24875;48.436;10.298;2023-05-17T19:53:31;96886.91;;;10.97;78.20
39141;BME280;24875;48.436;10.298;2023-05-17T19:55:59;96898.09;;;10.99;80.08
39141;BME280;24875;48.436;10.298;2023-05-17T19:58:29;96889.16;;;10.77;79.72
39141;BME280;24875;48.436;10.298;2023-05-17T20:00:57;96889.84;;;10.94;81.30
39141;BME280;24875;48.436;10.298;2023-05-17T20:03:24;96889.72;;;10.96;80.51
39141;BME280;24875;48.436;10.298;2023-05-17T20:05:51;96886.22;;;10.95;81.69
39141;BME280;24875;48.436;10.298;2023-05-17T20:08:19;96892.47;;;10.87;81.92
39141;BME280;24875;48.436;10.298;2023-05-17T20:10:45;96890.13;;;10.60;83.41
39141;BME280;24875;48.436;10.298;2023-05-17T20:13:12;96890.41;;;10.41;85.48
39141;BME280;24875;48.436;10.298;2023-05-17T20:15:39;96890.34;;;10.25;87.21
39141;BME280;24875;48.436;10.298;2023-05-17T20:18:07;96896.00;;;10.38;87.75
39141;BME280;24875;48.436;10.298;2023-05-17T20:20:34;96893.03;;;10.41;87.84
39141;BME280;24875;48.436;10.298;2023-05-17T20:23:00;96892.84;;;10.34;87.83
39141;BME280;24875;48.436;10.298;2023-05-17T20:25:27;96889.72;;;10.31;88.59
39141;BME280;24875;48.436;10.298;2023-05-17T20:27:53;96901.09;;;10.39;88.19
39141;BME280;24875;48.436;10.298;2023-05-17T20:30:20;96901.06;;;10.24;88.80
39141;BME280;24875;48.436;10.298;2023-05-17T20:32:46;96902.66;;;9.91;90.70
39141;BME280;24875;48.436;10.298;2023-05-17T20:35:14;96907.25;;;9.81;91.73
39141;BME280;24875;48.436;10.298;2023-05-17T20:37:41;96903.59;;;9.82;92.22
39141;BME280;24875;48.436;10.298;2023-05-17T20:40:08;96906.38;;;9.98;91.54
39141;BME280;24875;48.436;10.298;2023-05-17T20:42:35;96903.91;;;9.97;90.93
39141;BME280;24875;48.436;10.298;2023-05-17T20:45:05;96896.84;;;10.05;90.68
39141;BME280;24875;48.436;10.298;2023-05-17T20:47:33;96904.44;;;9.83;90.86
39141;BME280;24875;48.436;10.298;2023-05-17T20:50:01;96907.25;;;9.81;91.69
39141;BME280;24875;48.436;10.298;2023-05-17T20:52:29;96901.66;;;9.84;91.84
39141;BME280;24875;48.436;10.298;2023-05-17T20:54:56;96904.66;;;9.64;92.36
39141;BME280;24875;48.436;10.298;2023-05-17T20:57:22;96907.16;;;9.23;94.76
39141;BME280;24875;48.436;10.298;2023-05-17T20:59:48;96909.22;;;9.11;95.87
39141;BME280;24875;48.436;10.298;2023-05-17T21:02:16;96908.75;;;9.16;95.79
39141;BME280;24875;48.436;10.298;2023-05-17T21:04:43;96903.91;;;9.29;94.79
39141;BME280;24875;48.436;10.298;2023-05-17T21:07:10;96908.19;;;9.30;95.08
39141;BME280;24875;48.436;10.298;2023-05-17T21:09:38;96907.81;;;9.25;95.86
39141;BME280;24875;48.436;10.298;2023-05-17T21:12:04;96903.91;;;9.29;95.27
39141;BME280;24875;48.436;10.298;2023-05-17T21:14:31;96905.34;;;9.23;95.29
39141;BME280;24875;48.436;10.298;2023-05-17T21:16:57;96909.50;;;9.26;94.79
39141;BME280;24875;48.436;10.298;2023-05-17T21:19:26;96915.06;;;8.88;97.39
39141;BME280;24875;48.436;10.298;2023-05-17T21:21:52;96908.78;;;8.99;96.97
39141;BME280;24875;48.436;10.298;2023-05-17T21:24:19;96911.25;;;9.00;96.62
39141;BME280;24875;48.436;10.298;2023-05-17T21:26:46;96908.31;;;9.03;95.77
39141;BME280;24875;48.436;10.298;2023-05-17T21:29:13;96907.28;;;8.96;94.86
39141;BME280;24875;48.436;10.298;2023-05-17T21:31:39;96903.97;;;8.94;94.48
39141;BME280;24875;48.436;10.298;2023-05-17T21:34:06;96905.63;;;8.95;94.14
39141;BME280;24875;48.436;10.298;2023-05-17T21:36:32;96904.88;;;8.85;94.79
39141;BME280;24875;48.436;10.298;2023-05-17T21:38:59;96900.19;;;8.79;95.41
39141;BME280;24875;48.436;10.298;2023-05-17T21:41:25;96899.47;;;8.69;94.82
39141;BME280;24875;48.436;10.298;2023-05-17T21:43:53;96903.50;;;8.47;97.91
39141;BME280;24875;48.436;10.298;2023-05-17T21:46:19;96898.25;;;8.47;96.87
39141;BME280;24875;48.436;10.298;2023-05-17T21:48:46;96895.75;;;8.45;96.22
39141;BME280;24875;48.436;10.298;2023-05-17T21:51:12;96904.63;;;8.44;96.66
39141;BME280;24875;48.436;10.298;2023-05-17T21:53:39;96895.81;;;8.36;95.88
39141;BME280;24875;48.436;10.298;2023-05-17T21:56:06;96903.53;;;8.37;95.34
39141;BME280;24875;48.436;10.298;2023-05-17T21:58:32;96895.81;;;8.36;94.83
39141;BME280;24875;48.436;10.298;2023-05-17T22:01:00;96891.63;;;8.43;94.89
39141;BME280;24875;48.436;10.298;2023-05-17T22:03:26;96891.59;;;8.25;95.27
39141;BME280;24875;48.436;10.298;2023-05-17T22:05:53;96890.50;;;8.18;96.01
39141;BME280;24875;48.436;10.298;2023-05-17T22:08:19;96894.84;;;8.10;96.71
39141;BME280;24875;48.436;10.298;2023-05-17T22:10:46;96893.00;;;7.84;98.26
39141;BME280;24875;48.436;10.298;2023-05-17T22:13:14;96889.91;;;7.97;97.45
39141;BME280;24875;48.436;10.298;2023-05-17T22:15:42;96887.00;;;8.00;95.62
39141;BME280;24875;48.436;10.298;2023-05-17T22:18:10;96889.19;;;8.05;95.74
39141;BME280;24875;48.436;10.298;2023-05-17T22:20:38;96891.41;;;8.00;95.17
39141;BME280;24875;48.436;10.298;2023-05-17T22:23:04;96890.38;;;7.93;96.69
39141;BME280;24875;48.436;10.298;2023-05-17T22:25:30;96894.63;;;7.94;95.96
39141;BME280;24875;48.436;10.298;2023-05-17T22:27:57;96893.25;;;7.90;95.25
39141;BME280;24875;48.436;10.298;2023-05-17T22:30:23;96890.84;;;7.79;95.84
39141;BME280;24875;48.436;10.298;2023-05-17T22:32:50;96886.16;;;7.73;95.43
39141;BME280;24875;48.436;10.298;2023-05-17T22:35:20;96884.59;;;7.80;95.98
39141;BME280;24875;48.436;10.298;2023-05-17T22:37:46;96885.91;;;7.57;96.78
39141;BME280;24875;48.436;10.298;2023-05-17T22:40:14;96882.38;;;7.39;98.02
39141;BME280;24875;48.436;10.298;2023-05-17T22:42:40;96882.53;;;7.38;97.96
39141;BME280;24875;48.436;10.298;2023-05-17T22:45:08;96886.31;;;7.26;98.88
39141;BME280;24875;48.436;10.298;2023-05-17T22:47:36;96888.78;;;7.37;98.19
39141;BME280;24875;48.436;10.298;2023-05-17T22:50:03;96884.75;;;7.42;99.27
39141;BME280;24875;48.436;10.298;2023-05-17T22:52:31;96882.69;;;7.46;99.19
39141;BME280;24875;48.436;10.298;2023-05-17T22:54:58;96887.41;;;7.24;99.71
39141;BME280;24875;48.436;10.298;2023-05-17T22:57:24;96887.38;;;7.33;100.00
39141;BME280;24875;48.436;10.298;2023-05-17T22:59:51;96886.56;;;7.32;100.00
39141;BME280;24875;48.436;10.298;2023-05-17T23:02:17;96879.72;;;7.03;100.00
39141;BME280;24875;48.436;10.298;2023-05-17T23:04:43;96882.72;;;7.18;100.00
39141;BME280;24875;48.436;10.298;2023-05-17T23:07:10;96881.66;;;6.92;100.00
39141;BME280;24875;48.436;10.298;2023-05-17T23:09:38;96882.75;;;7.08;100.00
39141;BME280;24875;48.436;10.298;2023-05-17T23:12:05;96879.44;;;7.16;100.00
39141;BME280;24875;48.436;10.298;2023-05-17T23:14:33;96881.75;;;7.28;99.71
39141;BME280;24875;48.436;10.298;2023-05-17T23:17:00;96877.03;;;7.31;98.17
39141;BME280;24875;48.436;10.298;2023-05-17T23:19:27;96877.34;;;7.19;96.98
39141;BME280;24875;48.436;10.298;2023-05-17T23:21:54;96872.50;;;7.24;96.55
39141;BME280;24875;48.436;10.298;2023-05-17T23:24:21;96870.06;;;7.13;98.18
39141;BME280;24875;48.436;10.298;2023-05-17T23:26:51;96867.41;;;7.23;98.16
39141;BME280;24875;48.436;10.298;2023-05-17T23:29:17;96866.22;;;7.08;97.44
39141;BME280;24875;48.436;10.298;2023-05-17T23:31:44;96866.06;;;7.00;98.21
39141;BME280;24875;48.436;10.298;2023-05-17T23:34:12;96864.44;;;6.99;98.92
39141;BME280;24875;48.436;10.298;2023-05-17T23:36:38;96858.78;;;6.94;100.00
39141;BME280;24875;48.436;10.298;2023-05-17T23:39:05;96868.00;;;6.41;100.00
39141;BME280;24875;48.436;10.298;2023-05-17T23:41:32;96860.44;;;6.57;100.00
39141;BME280;24875;48.436;10.298;2023-05-17T23:44:03;96859.78;;;6.65;100.00
39141;BME280;24875;48.436;10.298;2023-05-17T23:46:29;96856.31;;;6.64;100.00
39141;BME280;24875;48.436;10.298;2023-05-17T23:48:56;96860.69;;;6.26;100.00
39141;BME280;24875;48.436;10.298;2023-05-17T23:51:22;96854.50;;;6.36;100.00
39141;BME280;24875;48.436;10.298;2023-05-17T23:53:49;96853.28;;;6.50;100.00
39141;BME280;24875;48.436;10.298;2023-05-17T23:56:15;96858.94;;;6.55;100.00
39141;BME280;24875;48.436;10.298;2023-05-17T23:58:42;96852.59;;;6.29;100.00
